Time;durP1;ratioP1;P1;durP2;ratioP2;P2;SDS_P1;SDS_P2;PMS_P1;PMS_P2;Temp;Humidity;BMP_temperature;BMP_pressure;BME280_temperature;BME280_humidity;BME280_pressure;Samples;Min_cycle;Max_cycle;Signal;HPM_P1;HPM_P2
2021/12/16 00:05:27;;;;;;;21.63;14.98;;;22.30;36.00;;;;;;5110765;27;20290;-63
2021/12/16 00:08:04;;;;;;;22.88;16.25;;;22.30;36.00;;;;;;5110331;28;20043;-63
2021/12/16 00:10:38;;;;;;;19.55;14.73;;;22.30;36.00;;;;;;5111146;27;20059;-64
2021/12/16 00:33:44;;;;;;;18.92;14.10;;;22.30;35.80;;;;;;5128759;27;20070;-63
2021/12/16 00:36:13;;;;;;;22.80;16.23;;;22.40;35.80;;;;;;5128567;27;20097;-63
2021/12/16 00:38:44;;;;;;;18.92;14.07;;;22.40;35.80;;;;;;5118482;27;20466;-63
2021/12/16 00:41:12;;;;;;;20.90;15.27;;;22.30;35.70;;;;;;5127628;27;20116;-64
2021/12/16 00:43:48;;;;;;;20.20;15.07;;;22.40;35.70;;;;;;5153960;27;20103;-63
2021/12/16 00:46:55;;;;;;;18.60;13.85;;;22.30;35.70;;;;;;5139274;27;20043;-63
2021/12/16 00:49:30;;;;;;;21.75;15.57;;;22.30;35.70;;;;;;5118522;27;20100;-63
2021/12/16 00:54:39;;;;;;;20.50;14.70;;;22.30;35.60;;;;;;5131958;27;20039;-64
2021/12/16 01:01:31;;;;;;;19.60;14.73;;;22.30;35.70;;;;;;5143967;27;20560;-63
2021/12/16 01:04:00;;;;;;;18.43;14.27;;;22.30;35.60;;;;;;5153472;27;20103;-64
2021/12/16 01:09:53;;;;;;;17.55;14.23;;;22.30;36.20;;;;;;5138066;27;20550;-63
2021/12/16 01:34:54;;;;;;;18.48;14.30;;;22.30;35.50;;;;;;5152454;27;20410;-64
2021/12/16 01:37:56;;;;;;;17.83;13.73;;;22.30;35.60;;;;;;5127491;27;20134;-63
2021/12/16 01:40:23;;;;;;;18.25;14.32;;;22.30;35.50;;;;;;5125003;27;20047;-63
2021/12/16 01:45:47;;;;;;;17.83;13.48;;;22.30;35.50;;;;;;5129552;27;20089;-63
2021/12/16 01:52:05;;;;;;;18.50;13.95;;;22.30;35.50;;;;;;5128525;27;20219;-63
2021/12/16 01:54:54;;;;;;;17.73;13.15;;;22.20;35.50;;;;;;5130421;27;20043;-63
2021/12/16 01:57:29;;;;;;;17.60;13.50;;;22.30;35.50;;;;;;5125004;27;20486;-63
2021/12/16 02:00:04;;;;;;;18.27;13.35;;;22.20;35.50;;;;;;5126336;27;20042;-64
2021/12/16 02:02:40;;;;;;;17.48;13.80;;;22.30;35.50;;;;;;5129976;27;20074;-63
2021/12/16 02:05:28;;;;;;;16.77;12.65;;;22.30;35.50;;;;;;5124652;27;20043;-63
2021/12/16 02:08:18;;;;;;;16.77;13.02;;;22.30;35.50;;;;;;5118978;27;20051;-62
2021/12/16 02:10:57;;;;;;;16.73;12.32;;;22.30;35.50;;;;;;5114330;27;20039;-63
2021/12/16 02:27:09;;;;;;;16.45;13.13;;;22.30;35.40;;;;;;5131054;27;20047;-62
2021/12/16 02:28:45;;;;;;;16.48;13.02;;;22.30;35.30;;;;;;5117892;27;20284;-63
2021/12/16 02:31:27;;;;;;;19.05;12.63;;;22.30;35.30;;;;;;5127695;27;20108;-63
2021/12/16 02:34:23;;;;;;;17.55;13.45;;;22.30;35.30;;;;;;5131171;27;20047;-63
2021/12/16 02:40:23;;;;;;;15.73;12.52;;;22.20;35.20;;;;;;5128816;27;20037;-63
2021/12/16 02:43:01;;;;;;;17.63;13.07;;;22.30;35.20;;;;;;5128728;27;20472;-63
2021/12/16 02:48:33;;;;;;;16.13;12.80;;;22.20;35.20;;;;;;5130264;27;20043;-63
2021/12/16 02:51:08;;;;;;;16.98;12.65;;;22.30;35.20;;;;;;5127311;27;20043;-63
2021/12/16 02:53:46;;;;;;;17.33;12.50;;;22.20;35.20;;;;;;5130409;27;20464;-63
2021/12/16 02:56:15;;;;;;;15.57;12.07;;;22.20;35.20;;;;;;5126930;27;20104;-63
2021/12/16 02:58:46;;;;;;;17.92;12.88;;;22.20;35.10;;;;;;5130514;27;20051;-63
2021/12/16 03:01:39;;;;;;;17.45;12.65;;;22.30;35.20;;;;;;5126845;27;20047;-63
2021/12/16 03:04:10;;;;;;;15.95;11.65;;;22.20;35.10;;;;;;5150730;27;20047;-62
2021/12/16 03:06:41;;;;;;;17.27;12.48;;;22.20;35.20;;;;;;5129559;27;20042;-63
2021/12/16 03:09:09;;;;;;;;;;;22.20;35.10;;;;;;5151243;27;20304;-63
2021/12/16 03:15:40;;;;;;;15.85;11.80;;;22.20;35.10;;;;;;5149017;27;20079;-63
2021/12/16 03:18:23;;;;;;;17.02;11.80;;;22.20;35.20;;;;;;5150508;27;20042;-63
2021/12/16 03:21:00;;;;;;;18.17;12.45;;;22.20;35.20;;;;;;5128737;27;20309;-63
2021/12/16 03:23:42;;;;;;;15.77;11.50;;;22.20;35.10;;;;;;5142209;27;20043;-62
2021/12/16 03:29:29;;;;;;;15.82;11.60;;;22.20;35.10;;;;;;5112844;27;20047;-63
2021/12/16 03:32:34;;;;;;;15.50;10.95;;;22.20;35.20;;;;;;5110963;27;20054;-63
2021/12/16 03:34:57;;;;;;;16.30;11.90;;;22.20;35.10;;;;;;5120140;27;20095;-63
2021/12/16 03:41:00;;;;;;;15.73;11.38;;;22.20;35.10;;;;;;5106141;28;20488;-63
2021/12/16 03:43:28;;;;;;;13.63;11.25;;;22.20;35.10;;;;;;5118135;28;20075;-63
2021/12/16 03:49:04;;;;;;;14.82;11.10;;;22.20;35.10;;;;;;5119641;27;20112;-63
2021/12/16 03:55:12;;;;;;;;;;;22.20;35.10;;;;;;5120764;27;20122;-62
2021/12/16 03:57:40;;;;;;;14.35;11.40;;;22.20;35.00;;;;;;5113837;27;19923;-62
2021/12/16 04:00:16;;;;;;;16.45;11.95;;;22.20;35.00;;;;;;5118689;27;20319;-62
2021/12/16 04:02:44;;;;;;;14.75;10.63;;;22.20;35.00;;;;;;5122466;27;20100;-62
2021/12/16 04:05:14;;;;;;;15.60;11.10;;;22.20;35.00;;;;;;5114776;27;20494;-62
2021/12/16 04:07:43;;;;;;;14.25;11.18;;;22.20;34.90;;;;;;5114313;27;20097;-62
2021/12/16 04:10:15;;;;;;;13.32;10.60;;;22.20;34.90;;;;;;5115683;27;20043;-62
2021/12/16 04:12:43;;;;;;;13.50;10.43;;;22.20;34.90;;;;;;5116845;27;20525;-62
2021/12/16 04:15:11;;;;;;;14.60;11.00;;;22.20;34.80;;;;;;5097758;27;20127;-62
2021/12/16 04:17:39;;;;;;;13.48;10.13;;;22.20;34.80;;;;;;5118349;27;20043;-62
2021/12/16 04:20:24;;;;;;;13.07;10.32;;;22.20;34.80;;;;;;5116106;27;20042;-62
2021/12/16 04:22:52;;;;;;;15.73;11.18;;;22.20;34.80;;;;;;5100825;27;20570;-62
2021/12/16 04:25:37;;;;;;;13.90;10.30;;;22.20;34.80;;;;;;5124361;27;20043;-62
2021/12/16 04:28:13;;;;;;;13.63;10.60;;;22.20;34.80;;;;;;5121895;27;20043;-62
2021/12/16 04:30:41;;;;;;;15.05;10.25;;;22.20;34.80;;;;;;5096260;27;20942;-62
2021/12/16 04:33:09;;;;;;;12.75;10.10;;;22.20;34.80;;;;;;5118224;27;20088;-62
2021/12/16 04:35:38;;;;;;;14.55;10.95;;;22.20;34.80;;;;;;5097748;27;20047;-62
2021/12/16 04:38:08;;;;;;;12.70;10.40;;;22.20;34.80;;;;;;5093634;28;20083;-63
2021/12/16 04:40:36;;;;;;;12.45;10.27;;;22.20;34.80;;;;;;5094292;28;20143;-63
2021/12/16 04:43:05;;;;;;;12.85;9.98;;;22.20;34.80;;;;;;5080190;28;20048;-64
2021/12/16 04:45:33;;;;;;;15.07;10.85;;;22.20;34.80;;;;;;5106801;28;20126;-63
2021/12/16 04:48:02;;;;;;;14.75;11.35;;;22.20;34.80;;;;;;5104677;27;20056;-63
2021/12/16 04:50:29;;;;;;;12.93;10.15;;;22.20;34.80;;;;;;5105132;27;20036;-63
2021/12/16 04:52:57;;;;;;;11.88;9.80;;;22.20;34.80;;;;;;5132410;27;20047;-63
2021/12/16 04:55:24;;;;;;;13.00;10.20;;;22.20;34.80;;;;;;5130637;27;20420;-63
2021/12/16 05:01:28;;;;;;;12.05;9.77;;;22.20;34.80;;;;;;5128012;27;20084;-63
2021/12/16 05:03:56;;;;;;;12.23;9.88;;;22.20;34.80;;;;;;5132983;27;20119;-63
2021/12/16 05:06:23;;;;;;;11.38;9.90;;;22.20;34.80;;;;;;5110634;27;20395;-63
2021/12/16 05:08:50;;;;;;;11.35;9.77;;;22.20;34.80;;;;;;5117919;27;20085;-63
2021/12/16 05:11:18;;;;;;;12.60;9.80;;;22.20;34.80;;;;;;5128665;27;20039;-63
2021/12/16 05:13:46;;;;;;;12.82;10.15;;;22.20;34.80;;;;;;5133230;27;20051;-63
2021/12/16 05:16:13;;;;;;;13.25;9.57;;;22.20;34.80;;;;;;5128427;27;20043;-63
2021/12/16 05:18:42;;;;;;;10.85;8.75;;;22.20;34.80;;;;;;5117555;27;20112;-63
2021/12/16 05:26:58;;;;;;;11.90;8.70;;;22.20;34.80;;;;;;5128188;27;20051;-63
2021/12/16 05:29:25;;;;;;;12.60;8.90;;;22.20;34.80;;;;;;5121648;27;20055;-63
2021/12/16 05:31:54;;;;;;;11.00;8.50;;;22.20;34.80;;;;;;5129378;27;20084;-63
2021/12/16 05:34:22;;;;;;;11.95;9.40;;;22.20;34.80;;;;;;5131734;27;20043;-63
2021/12/16 05:36:49;;;;;;;11.20;8.60;;;22.20;34.80;;;;;;5127231;27;20047;-63
2021/12/16 05:39:17;;;;;;;11.57;8.90;;;22.20;34.80;;;;;;5118028;27;20159;-63
2021/12/16 05:41:46;;;;;;;11.95;9.60;;;22.20;34.80;;;;;;5121497;27;20043;-63
2021/12/16 05:44:15;;;;;;;10.82;8.13;;;22.20;34.70;;;;;;5112307;27;20075;-64
2021/12/16 05:46:43;;;;;;;12.45;9.35;;;22.20;34.70;;;;;;5125703;27;20566;-63
2021/12/16 05:49:13;;;;;;;10.45;8.52;;;22.20;34.70;;;;;;5100359;27;20565;-63
2021/12/16 05:51:42;;;;;;;11.48;8.65;;;22.20;34.70;;;;;;5126197;27;20116;-63
2021/12/16 05:54:11;;;;;;;11.73;8.85;;;22.20;34.60;;;;;;5130510;27;20047;-63
2021/12/16 05:56:39;;;;;;;10.63;8.23;;;22.20;34.60;;;;;;5116482;27;20047;-63
2021/12/16 05:59:08;;;;;;;9.93;7.75;;;22.20;34.60;;;;;;5096387;28;20069;-63
2021/12/16 06:01:38;;;;;;;11.02;8.63;;;22.20;34.60;;;;;;5121148;27;20532;-63
2021/12/16 06:04:06;;;;;;;10.77;8.68;;;22.20;34.60;;;;;;5131276;27;20053;-63
2021/12/16 06:06:34;;;;;;;10.32;8.38;;;22.20;34.50;;;;;;5126935;27;20108;-63
2021/12/16 06:09:02;;;;;;;10.77;8.18;;;22.20;34.30;;;;;;5116840;27;20287;-63
2021/12/16 06:11:32;;;;;;;9.77;7.70;;;22.20;34.30;;;;;;5125595;27;20608;-63
2021/12/16 06:14:19;;;;;;;10.38;7.90;;;22.20;34.20;;;;;;5129983;27;20043;-63
2021/12/16 06:26:23;;;;;;;9.07;7.63;;;22.20;33.90;;;;;;5127980;27;20112;-63
2021/12/16 06:31:42;;;;;;;9.10;6.97;;;22.20;34.00;;;;;;5121011;27;20047;-65
2021/12/16 06:34:09;;;;;;;8.80;7.50;;;22.20;34.00;;;;;;5128680;27;20412;-65
2021/12/16 06:36:37;;;;;;;8.40;6.82;;;22.30;34.20;;;;;;5125895;27;20105;-65
2021/12/16 06:39:05;;;;;;;10.70;7.30;;;22.30;34.20;;;;;;5117493;27;20047;-64
2021/12/16 06:41:37;;;;;;;9.30;7.32;;;22.30;34.30;;;;;;5121645;27;20125;-64
2021/12/16 06:44:14;;;;;;;7.45;6.28;;;22.30;34.40;;;;;;5119362;27;20128;-66
2021/12/16 06:46:48;;;;;;;8.50;6.90;;;22.40;34.60;;;;;;5123932;27;20101;-65
2021/12/16 06:49:19;;;;;;;7.68;6.82;;;22.40;34.70;;;;;;5092049;27;20753;-64
2021/12/16 06:51:52;;;;;;;8.27;6.82;;;22.40;34.80;;;;;;5119397;27;20139;-65
2021/12/16 06:54:32;;;;;;;8.27;6.75;;;22.50;35.00;;;;;;5120318;27;20051;-65
2021/12/16 06:57:20;;;;;;;8.10;7.07;;;22.50;34.90;;;;;;5124894;27;20047;-66
2021/12/16 07:00:07;;;;;;;11.50;7.65;;;22.60;35.00;;;;;;5114010;27;20128;-66
2021/12/16 07:02:56;;;;;;;10.45;7.50;;;22.60;34.90;;;;;;5123287;27;20054;-70
2021/12/16 07:05:30;;;;;;;9.65;7.60;;;22.70;34.80;;;;;;5122621;27;20051;-66
2021/12/16 07:07:59;;;;;;;12.25;8.38;;;22.70;35.10;;;;;;5116106;27;20100;-67
2021/12/16 07:10:29;;;;;;;11.15;8.52;;;22.80;35.30;;;;;;5111581;27;21603;-68
2021/12/16 07:13:00;;;;;;;10.40;7.55;;;22.80;35.30;;;;;;5122395;27;20053;-65
2021/12/16 07:15:29;;;;;;;11.75;8.18;;;22.90;35.50;;;;;;5116515;27;20430;-69
2021/12/16 07:17:57;;;;;;;11.57;8.17;;;22.90;35.40;;;;;;5113418;27;20180;-67
2021/12/16 07:20:29;;;;;;;13.38;9.38;;;23.00;35.40;;;;;;5123984;27;20295;-68
2021/12/16 07:22:58;;;;;;;12.90;8.77;;;23.00;35.30;;;;;;5110038;27;20067;-67
2021/12/16 07:25:26;;;;;;;13.40;8.38;;;23.10;35.20;;;;;;5119753;27;20051;-66
2021/12/16 07:27:54;;;;;;;10.88;7.88;;;23.10;35.10;;;;;;5120573;27;20047;-66
2021/12/16 07:30:23;;;;;;;11.43;7.70;;;23.20;35.00;;;;;;5107218;27;20054;-66
2021/12/16 07:32:51;;;;;;;11.75;8.13;;;23.20;35.00;;;;;;5119689;27;20054;-66
2021/12/16 07:35:24;;;;;;;10.32;7.32;;;23.30;35.10;;;;;;5117680;27;20143;-65
2021/12/16 07:37:53;;;;;;;11.88;8.23;;;23.30;35.00;;;;;;5114898;27;20105;-66
2021/12/16 07:40:23;;;;;;;11.93;8.07;;;23.40;35.00;;;;;;5107284;28;20039;-64
2021/12/16 07:43:24;;;;;;;;;;;23.50;34.80;;;;;;5129326;28;20057;-65
2021/12/16 07:45:46;;;;;;;11.55;7.60;;;23.50;34.70;;;;;;5116442;27;19924;-67
2021/12/16 07:48:15;;;;;;;11.38;7.75;;;23.60;34.70;;;;;;5133642;27;20514;-65
2021/12/16 07:50:49;;;;;;;9.13;6.88;;;23.60;34.50;;;;;;5128574;27;20054;-66
2021/12/16 07:53:16;;;;;;;10.80;7.25;;;23.60;34.40;;;;;;5149850;27;20146;-67
2021/12/16 07:55:46;;;;;;;11.00;7.63;;;23.70;34.30;;;;;;5121498;27;20093;-67
2021/12/16 07:58:13;;;;;;;10.93;7.63;;;23.70;34.30;;;;;;5135373;27;20487;-68
2021/12/16 08:00:41;;;;;;;10.40;7.25;;;23.70;34.40;;;;;;5109357;28;20085;-69
2021/12/16 08:03:12;;;;;;;8.90;6.80;;;23.70;34.40;;;;;;5128064;27;20148;-66
2021/12/16 08:05:44;;;;;;;;;;;23.80;34.40;;;;;;5112617;27;20134;-67
2021/12/16 08:08:11;;;;;;;9.23;6.53;;;23.80;34.40;;;;;;5118808;27;19945;-65
2021/12/16 08:10:39;;;;;;;9.05;6.40;;;23.80;34.40;;;;;;5122761;28;20092;-67
2021/12/16 08:13:06;;;;;;;10.00;6.88;;;23.90;34.40;;;;;;5111669;28;20081;-67
2021/12/16 08:15:34;;;;;;;10.00;6.85;;;23.90;34.40;;;;;;5123694;27;20062;-66
2021/12/16 08:18:01;;;;;;;12.30;6.40;;;23.90;34.30;;;;;;5134823;27;20078;-66
2021/12/16 08:20:28;;;;;;;13.30;7.35;;;24.00;34.40;;;;;;5142629;27;20099;-64
2021/12/16 08:22:56;;;;;;;10.48;7.07;;;24.00;34.40;;;;;;5149487;27;20073;-67
2021/12/16 08:25:25;;;;;;;8.77;6.22;;;24.00;34.30;;;;;;5145660;27;20111;-69
2021/12/16 08:27:53;;;;;;;10.50;6.45;;;24.10;34.40;;;;;;5121845;27;20100;-66
2021/12/16 08:30:24;;;;;;;7.50;6.13;;;24.10;34.30;;;;;;5121690;28;20054;-67
2021/12/16 08:32:55;;;;;;;9.57;5.93;;;24.10;34.30;;;;;;5130251;27;20051;-68
2021/12/16 08:35:23;;;;;;;8.38;6.30;;;24.20;34.30;;;;;;5129248;27;20112;-65
2021/12/16 08:37:50;;;;;;;8.27;5.82;;;24.20;34.20;;;;;;5120201;27;20100;-66
2021/12/16 08:40:21;;;;;;;8.18;6.10;;;24.20;34.20;;;;;;5147289;27;20054;-67
2021/12/16 08:42:48;;;;;;;;;;;24.30;34.10;;;;;;5135845;27;20062;-66
2021/12/16 08:45:19;;;;;;;7.50;6.13;;;24.30;34.00;;;;;;5153265;27;19919;-65
2021/12/16 08:47:47;;;;;;;7.88;5.57;;;24.40;34.00;;;;;;5130550;27;20054;-69
2021/12/16 08:50:17;;;;;;;8.98;6.47;;;24.40;34.00;;;;;;5146925;27;20050;-72
2021/12/16 08:52:45;;;;;;;7.57;5.80;;;24.50;33.90;;;;;;5151854;27;20479;-69
2021/12/16 08:55:14;;;;;;;7.45;4.88;;;24.50;33.80;;;;;;5135005;27;20392;-69
2021/12/16 08:57:43;;;;;;;6.57;5.25;;;24.60;33.80;;;;;;5149646;27;20069;-67
2021/12/16 09:00:17;;;;;;;8.00;6.10;;;24.60;33.70;;;;;;5147910;27;20050;-66
2021/12/16 09:02:44;;;;;;;8.85;5.88;;;24.70;33.70;;;;;;5157985;27;20043;-68
2021/12/16 09:05:12;;;;;;;9.27;5.47;;;24.70;33.50;;;;;;5157597;27;20050;-61
2021/12/16 09:07:40;;;;;;;7.00;5.35;;;24.70;33.50;;;;;;5157123;27;20073;-65
2021/12/16 09:10:10;;;;;;;8.90;5.80;;;24.70;33.40;;;;;;5113714;27;20082;-71
2021/12/16 09:12:51;;;;;;;7.50;5.32;;;24.70;33.40;;;;;;5129793;27;20104;-68
2021/12/16 09:15:23;;;;;;;11.80;5.07;;;24.70;33.30;;;;;;5130577;27;20062;-64
2021/12/16 09:17:52;;;;;;;6.68;4.68;;;24.80;33.40;;;;;;5124326;27;20086;-71
2021/12/16 09:20:20;;;;;;;11.02;5.68;;;24.80;33.40;;;;;;5115992;27;20047;-70
2021/12/16 09:22:48;;;;;;;10.85;4.65;;;24.80;33.30;;;;;;5142235;27;20047;-69
2021/12/16 09:25:16;;;;;;;8.65;4.35;;;24.90;33.30;;;;;;5140818;27;20054;-65
2021/12/16 09:27:58;;;;;;;6.57;4.53;;;24.90;33.30;;;;;;5143479;27;20051;-67
2021/12/16 09:30:27;;;;;;;5.32;4.15;;;24.90;33.50;;;;;;5124145;27;20043;-66
2021/12/16 09:32:58;;;;;;;7.45;5.13;;;24.90;33.90;;;;;;5143708;27;20054;-67
2021/12/16 09:35:30;;;;;;;7.82;4.82;;;24.90;33.10;;;;;;5147765;27;20039;-66
2021/12/16 09:37:58;;;;;;;7.28;4.45;;;25.00;33.00;;;;;;5128499;27;20039;-71
2021/12/16 09:40:28;;;;;;;4.32;3.78;;;25.00;32.90;;;;;;5107769;27;20116;-70
2021/12/16 09:42:57;;;;;;;7.45;4.75;;;25.00;32.80;;;;;;5129126;27;20103;-66
2021/12/16 09:45:44;;;;;;;5.78;4.18;;;25.10;32.80;;;;;;5125547;27;20130;-68
2021/12/16 09:48:11;;;;;;;6.20;3.85;;;25.10;32.70;;;;;;5105910;27;20478;-66
2021/12/16 09:50:39;;;;;;;6.25;3.90;;;25.10;32.70;;;;;;5126791;27;20072;-68
2021/12/16 09:53:07;;;;;;;3.70;3.40;;;25.10;32.90;;;;;;5136707;27;20087;-65
2021/12/16 09:55:34;;;;;;;4.50;4.05;;;25.10;33.00;;;;;;5137921;27;20401;-65
2021/12/16 09:58:03;;;;;;;6.35;3.60;;;25.10;33.10;;;;;;5106051;27;20111;-63
2021/12/16 10:00:31;;;;;;;4.32;3.60;;;25.20;33.10;;;;;;5136435;27;20392;-64
2021/12/16 10:03:01;;;;;;;4.63;3.92;;;25.10;33.00;;;;;;5116151;27;20192;-68
2021/12/16 10:05:31;;;;;;;5.50;3.07;;;25.20;33.10;;;;;;5122124;27;20177;-66
2021/12/16 10:08:02;;;;;;;3.95;2.95;;;25.30;33.10;;;;;;5124508;27;20340;-68
2021/12/16 10:10:30;;;;;;;3.45;2.97;;;25.30;33.10;;;;;;5122749;27;20448;-66
2021/12/16 10:13:00;;;;;;;4.60;3.22;;;25.30;32.90;;;;;;5117575;27;20638;-65
2021/12/16 10:18:21;;;;;;;4.15;2.78;;;25.40;33.00;;;;;;5101920;27;20055;-66
2021/12/16 10:20:51;;;;;;;;;;;25.40;32.70;;;;;;5124199;27;20066;-65
2021/12/16 10:23:25;;;;;;;3.85;2.53;;;25.40;32.80;;;;;;5086749;27;19931;-64
2021/12/16 10:25:57;;;;;;;2.63;2.42;;;25.40;33.20;;;;;;5111245;27;20070;-70
2021/12/16 10:28:27;;;;;;;10.25;3.28;;;25.40;32.90;;;;;;5097855;27;20080;-66
2021/12/16 10:31:08;;;;;;;2.85;2.50;;;25.40;32.90;;;;;;5104097;27;20141;-69
2021/12/16 10:33:46;;;;;;;3.28;2.72;;;25.40;33.00;;;;;;5117321;27;20108;-70
2021/12/16 10:36:20;;;;;;;4.60;3.42;;;25.40;32.90;;;;;;5126213;27;20054;-66
2021/12/16 10:38:57;;;;;;;3.55;3.10;;;25.40;33.00;;;;;;5107321;27;20039;-69
2021/12/16 10:41:35;;;;;;;2.58;2.38;;;25.40;32.90;;;;;;5122762;27;20466;-64
2021/12/16 10:44:17;;;;;;;2.85;2.60;;;25.40;32.80;;;;;;5125023;27;20496;-67
2021/12/16 10:47:05;;;;;;;5.60;2.88;;;25.40;32.90;;;;;;5119337;27;20600;-67
2021/12/16 10:49:38;;;;;;;4.82;2.40;;;25.40;33.00;;;;;;5111128;27;20043;-69
2021/12/16 10:52:16;;;;;;;8.50;2.53;;;25.40;33.10;;;;;;5105946;27;20095;-71
2021/12/16 10:54:47;;;;;;;5.65;2.55;;;25.40;33.10;;;;;;5126332;27;20059;-70
2021/12/16 10:57:18;;;;;;;6.38;2.28;;;25.40;33.00;;;;;;5116725;27;20051;-68
2021/12/16 10:59:54;;;;;;;2.60;2.15;;;25.40;33.00;;;;;;5095197;27;20277;-68
2021/12/16 11:02:30;;;;;;;2.35;2.15;;;25.50;33.00;;;;;;5122420;27;20047;-69
2021/12/16 11:05:00;;;;;;;2.17;1.98;;;25.40;32.90;;;;;;5123206;27;20051;-70
2021/12/16 11:07:39;;;;;;;5.72;2.78;;;25.50;32.90;;;;;;5126257;27;20043;-73
2021/12/16 11:10:17;;;;;;;5.47;2.42;;;25.50;32.80;;;;;;5123016;27;20036;-75
2021/12/16 11:12:50;;;;;;;2.28;2.08;;;25.40;32.70;;;;;;5123655;27;20043;-71
2021/12/16 11:15:29;;;;;;;2.20;1.92;;;25.40;32.50;;;;;;5106055;27;20072;-71
2021/12/16 11:18:07;;;;;;;1.98;1.70;;;25.40;32.40;;;;;;5110770;27;20608;-71
2021/12/16 11:20:48;;;;;;;2.55;2.10;;;25.40;32.30;;;;;;5103914;27;20558;-71
2021/12/16 11:23:23;;;;;;;1.98;1.80;;;25.40;32.20;;;;;;5107794;27;20047;-72
2021/12/16 11:25:55;;;;;;;1.80;1.70;;;25.40;32.10;;;;;;5106550;27;20365;-71
2021/12/16 11:28:31;;;;;;;1.98;1.77;;;25.40;32.00;;;;;;5103102;27;20051;-72
2021/12/16 11:31:05;;;;;;;1.60;1.42;;;25.40;31.90;;;;;;5104598;27;20092;-71
2021/12/16 11:33:38;;;;;;;1.80;1.70;;;25.40;31.80;;;;;;5105070;27;20043;-71
2021/12/16 11:36:13;;;;;;;1.88;1.75;;;25.40;31.90;;;;;;5111240;27;20039;-71
2021/12/16 11:39:05;;;;;;;1.70;1.60;;;25.30;31.90;;;;;;5103817;27;20051;-71
2021/12/16 11:41:41;;;;;;;2.40;1.55;;;25.30;31.90;;;;;;5114017;27;20066;-71
2021/12/16 11:44:17;;;;;;;2.00;1.77;;;25.20;31.80;;;;;;5119964;27;20487;-70
2021/12/16 11:46:55;;;;;;;1.80;1.67;;;25.20;31.80;;;;;;5105430;27;20039;-75
2021/12/16 11:49:41;;;;;;;2.38;1.60;;;25.20;31.90;;;;;;5099137;27;20043;-70
2021/12/16 11:52:23;;;;;;;1.83;1.73;;;25.20;31.80;;;;;;5106537;27;20051;-70
2021/12/16 11:55:01;;;;;;;1.40;1.30;;;25.10;31.70;;;;;;5120659;27;20491;-73
2021/12/16 11:57:33;;;;;;;1.67;1.55;;;25.10;31.70;;;;;;5111321;27;20096;-72
2021/12/16 12:00:20;;;;;;;1.55;1.35;;;25.10;31.70;;;;;;5106857;27;20043;-72
2021/12/16 12:02:51;;;;;;;1.60;1.20;;;25.10;31.80;;;;;;5122348;27;20043;-72
2021/12/16 12:05:37;;;;;;;1.38;1.25;;;25.00;31.70;;;;;;5087486;27;20066;-70
2021/12/16 12:08:08;;;;;;;1.63;1.52;;;25.00;31.70;;;;;;5114091;27;20043;-72
2021/12/16 12:10:44;;;;;;;3.13;1.52;;;25.00;31.80;;;;;;5126629;27;20457;-71
2021/12/16 12:13:15;;;;;;;1.42;1.33;;;24.90;31.70;;;;;;5132482;27;20047;-68
2021/12/16 12:16:07;;;;;;;4.60;1.30;;;24.90;31.70;;;;;;5126148;27;20043;-68
2021/12/16 12:18:51;;;;;;;5.20;1.27;;;24.90;31.80;;;;;;5124597;27;20047;-69
2021/12/16 12:21:34;;;;;;;1.33;1.23;;;24.90;32.30;;;;;;5112286;27;20052;-67
2021/12/16 12:24:18;;;;;;;1.70;1.52;;;24.80;32.50;;;;;;5131974;27;20537;-66
2021/12/16 12:26:54;;;;;;;2.88;1.50;;;24.80;32.70;;;;;;5121189;27;20096;-67
2021/12/16 12:29:28;;;;;;;1.65;1.55;;;24.80;33.00;;;;;;5104059;27;20058;-68
2021/12/16 12:32:07;;;;;;;1.20;1.20;;;24.80;33.00;;;;;;5133261;27;20541;-69
2021/12/16 12:34:37;;;;;;;4.57;1.73;;;24.70;33.10;;;;;;5131084;27;20051;-68
2021/12/16 12:37:08;;;;;;;1.40;1.10;;;24.70;33.40;;;;;;5123077;27;20047;-74
2021/12/16 12:39:42;;;;;;;2.22;1.38;;;24.70;33.60;;;;;;5105761;27;20051;-68
2021/12/16 12:42:11;;;;;;;0.85;0.85;;;24.70;33.90;;;;;;5129079;27;20505;-67
2021/12/16 12:44:39;;;;;;;4.28;1.00;;;24.80;34.30;;;;;;5133636;27;20108;-65
2021/12/16 12:47:12;;;;;;;1.27;1.23;;;24.80;34.50;;;;;;5131358;27;20043;-67
2021/12/16 12:49:39;;;;;;;1.77;1.17;;;24.80;35.00;;;;;;5107288;27;20455;-64
2021/12/16 12:52:11;;;;;;;2.40;1.17;;;24.80;35.00;;;;;;5119708;27;20093;-68
2021/12/16 12:54:42;;;;;;;3.13;1.10;;;24.80;34.90;;;;;;5123292;27;20127;-71
2021/12/16 12:57:26;;;;;;;0.88;0.88;;;24.90;34.70;;;;;;5122238;27;20043;-67
2021/12/16 12:59:54;;;;;;;1.67;1.35;;;24.90;34.60;;;;;;5113274;27;20051;-68
2021/12/16 13:02:35;;;;;;;1.15;1.05;;;24.80;34.50;;;;;;5134042;27;20079;-66
2021/12/16 13:05:18;;;;;;;1.40;1.30;;;24.80;34.50;;;;;;5151003;27;20101;-67
2021/12/16 13:07:53;;;;;;;13.02;1.40;;;24.80;34.40;;;;;;5119747;27;20050;-69
2021/12/16 13:10:27;;;;;;;1.83;1.10;;;24.80;34.60;;;;;;5117688;27;20069;-68
2021/12/16 13:13:28;;;;;;;1.30;1.20;;;24.80;34.70;;;;;;5128876;27;20548;-68
2021/12/16 13:16:51;;;;;;;1.10;1.00;;;24.80;34.60;;;;;;5129256;27;20751;-73
2021/12/16 13:25:04;;;;;;;1.52;1.27;;;24.80;34.20;;;;;;5134486;27;20101;-78
2021/12/16 13:27:37;;;;;;;3.72;1.02;;;24.80;34.20;;;;;;5121953;27;20047;-68
2021/12/16 13:30:20;;;;;;;1.95;1.50;;;24.80;34.30;;;;;;5117260;27;20054;-74
2021/12/16 13:33:17;;;;;;;4.20;1.00;;;24.80;34.50;;;;;;5130192;27;20384;-67
2021/12/16 13:35:50;;;;;;;2.72;1.10;;;24.80;34.60;;;;;;5125997;27;20134;-66
2021/12/16 13:38:21;;;;;;;2.53;1.15;;;24.80;34.60;;;;;;5121344;27;20054;-64
2021/12/16 13:40:49;;;;;;;;;;;24.70;34.70;;;;;;5118431;27;20478;-69
2021/12/16 13:43:27;;;;;;;5.68;1.45;;;24.70;34.90;;;;;;5130586;27;20330;-67
2021/12/16 13:46:31;;;;;;;2.35;1.33;;;24.70;35.00;;;;;;5111116;27;20069;-68
2021/12/16 13:58:14;;;;;;;1.80;1.13;;;24.80;34.90;;;;;;5101184;27;20051;-71
2021/12/16 14:01:11;;;;;;;1.30;1.15;;;24.80;34.50;;;;;;5117527;27;20092;-72
2021/12/16 14:04:05;;;;;;;3.42;1.55;;;24.80;34.40;;;;;;5131070;27;20470;-70
2021/12/16 14:06:40;;;;;;;1.20;1.10;;;24.80;34.40;;;;;;5127214;27;20043;-70
2021/12/16 14:09:19;;;;;;;10.35;1.45;;;24.90;34.40;;;;;;5095498;27;20051;-76
2021/12/16 14:15:13;;;;;;;1.00;1.00;;;24.80;34.20;;;;;;5132229;27;20487;-67
2021/12/16 14:17:54;;;;;;;10.73;1.27;;;24.80;34.20;;;;;;5122925;27;20097;-67
2021/12/16 14:23:53;;;;;;;1.75;1.10;;;24.80;34.30;;;;;;5108888;27;20093;-69
2021/12/16 14:26:39;;;;;;;0.88;0.88;;;24.80;34.50;;;;;;5095018;28;20052;-70
2021/12/16 14:33:10;;;;;;;1.25;1.13;;;24.80;34.20;;;;;;5112997;27;20427;-70
2021/12/16 14:34:57;;;;;;;0.73;0.70;;;24.70;34.10;;;;;;5122805;27;20039;-71
2021/12/16 14:37:33;;;;;;;3.50;1.10;;;24.70;34.40;;;;;;5121048;27;20079;-67
2021/12/16 14:40:17;;;;;;;2.83;1.02;;;24.70;34.70;;;;;;5108243;27;20043;-68
2021/12/16 14:43:14;;;;;;;2.30;1.10;;;24.70;35.00;;;;;;5104412;27;20100;-77
2021/12/16 14:45:43;;;;;;;6.28;1.33;;;24.70;35.10;;;;;;5121017;27;20054;-73
2021/12/16 14:48:25;;;;;;;4.90;1.30;;;24.70;35.40;;;;;;5120215;27;20523;-75
2021/12/16 14:51:01;;;;;;;1.95;1.00;;;24.70;35.50;;;;;;5120135;27;20039;-69
2021/12/16 14:53:46;;;;;;;2.42;1.02;;;24.70;35.70;;;;;;5118704;27;20108;-78
2021/12/16 14:56:25;;;;;;;1.30;1.10;;;24.70;35.70;;;;;;5101551;27;20115;-73
2021/12/16 14:59:03;;;;;;;2.65;1.17;;;24.70;35.80;;;;;;5098173;27;20061;-68
2021/12/16 15:01:37;;;;;;;2.22;0.88;;;24.70;36.10;;;;;;5085668;27;20142;-71
2021/12/16 15:04:08;;;;;;;2.50;1.23;;;24.70;36.00;;;;;;5092450;27;20954;-73
2021/12/16 15:06:45;;;;;;;0.90;0.90;;;24.80;35.90;;;;;;5108729;27;20070;-69
2021/12/16 15:09:24;;;;;;;2.05;1.02;;;24.80;35.60;;;;;;5116957;27;20043;-71
2021/12/16 15:12:15;;;;;;;0.90;0.82;;;24.80;35.40;;;;;;5113120;27;20113;-74
2021/12/16 15:44:08;;;;;;;2.58;0.90;;;24.60;33.90;;;;;;5119780;27;20431;-68
2021/12/16 15:46:36;;;;;;;0.70;0.70;;;24.60;33.80;;;;;;5124493;27;20480;-72
2021/12/16 15:49:04;;;;;;;2.28;0.85;;;24.50;33.70;;;;;;5100124;28;20089;-72
2021/12/16 15:51:31;;;;;;;1.10;0.90;;;24.50;33.70;;;;;;5126950;28;20517;-72
2021/12/16 15:54:19;;;;;;;2.55;1.20;;;24.50;33.60;;;;;;5128320;28;20074;-72
2021/12/16 15:56:49;;;;;;;2.05;1.08;;;24.40;33.50;;;;;;5128463;28;20051;-71
2021/12/16 15:59:37;;;;;;;2.97;1.00;;;24.30;33.40;;;;;;5064818;28;20141;-71
2021/12/16 16:02:04;;;;;;;0.68;0.68;;;24.30;33.40;;;;;;5067541;28;20048;-71
2021/12/16 16:04:34;;;;;;;2.10;0.88;;;24.30;33.50;;;;;;5077718;28;20045;-68
2021/12/16 16:07:11;;;;;;;3.53;0.90;;;24.20;33.40;;;;;;5053703;28;20087;-71
2021/12/16 16:09:44;;;;;;;1.33;1.23;;;24.10;33.40;;;;;;5030550;28;20123;-68
2021/12/16 16:12:17;;;;;;;2.58;1.40;;;24.10;33.40;;;;;;5034425;28;20084;-70
2021/12/16 16:14:49;;;;;;;4.55;1.42;;;24.10;33.50;;;;;;5060855;28;20146;-75
2021/12/16 16:17:20;;;;;;;1.50;1.20;;;24.10;33.50;;;;;;5064249;28;20131;-70